createdAt,value
2022-12-13T00:01:47.829Z,30.02
2022-12-13T00:04:16.240Z,26.52
2022-12-13T00:06:44.540Z,28.23
2022-12-13T00:09:14.958Z,25.30
2022-12-13T00:11:43.204Z,25.85
2022-12-13T00:14:11.632Z,27.63
2022-12-13T00:16:46.776Z,28.63
2022-12-13T00:19:15.673Z,27.67
2022-12-13T00:21:43.813Z,27.63
2022-12-13T00:24:12.336Z,25.73
2022-12-13T00:26:40.405Z,28.38
2022-12-13T00:29:09.719Z,27.38
2022-12-13T00:34:27.433Z,27.15
2022-12-13T00:36:56.101Z,26.92
2022-12-13T00:39:24.223Z,28.42
2022-12-13T00:41:52.644Z,26.00
2022-12-13T00:44:20.931Z,26.20
2022-12-13T00:46:51.906Z,26.38
2022-12-13T00:49:20.176Z,31.33
2022-12-13T00:51:49.800Z,26.50
2022-12-13T00:54:20.257Z,25.27
2022-12-13T00:56:48.482Z,30.33
2022-12-13T00:59:16.710Z,27.10
2022-12-13T01:01:45.337Z,27.13
2022-12-13T01:04:13.687Z,29.55
2022-12-13T01:06:43.762Z,26.20
2022-12-13T01:09:18.249Z,30.77
2022-12-13T01:11:47.414Z,31.33
2022-12-13T01:14:16.451Z,28.98
2022-12-13T01:16:44.686Z,28.45
2022-12-13T01:19:12.949Z,26.88
2022-12-13T01:21:41.076Z,30.13
2022-12-13T01:24:09.750Z,27.35
2022-12-13T01:26:40.392Z,26.35
2022-12-13T01:29:11.366Z,26.15
2022-12-13T01:31:41.675Z,27.40
2022-12-13T01:34:11.566Z,24.95
2022-12-13T01:36:40.799Z,26.23
2022-12-13T01:39:14.617Z,22.90
2022-12-13T01:41:46.616Z,23.70
2022-12-13T01:44:52.223Z,24.10
2022-12-13T01:47:25.120Z,25.17
2022-12-13T01:49:55.875Z,25.92
2022-12-13T01:52:24.327Z,26.80
2022-12-13T01:54:56.671Z,25.58
2022-12-13T01:57:34.781Z,23.88
2022-12-13T02:00:03.433Z,27.52
2022-12-13T02:02:35.537Z,23.85
2022-12-13T02:05:08.222Z,29.52
2022-12-13T02:07:38.197Z,25.17
2022-12-13T02:10:08.759Z,29.08
2022-12-13T02:12:39.305Z,28.58
2022-12-13T02:15:11.764Z,24.85
2022-12-13T02:18:09.120Z,23.35
2022-12-13T02:21:04.502Z,23.55
2022-12-13T02:24:08.778Z,21.50
2022-12-13T02:27:01.281Z,22.48
2022-12-13T02:30:11.177Z,24.33
2022-12-13T02:32:46.980Z,20.33
2022-12-13T02:35:22.469Z,21.63
2022-12-13T02:37:59.765Z,22.23
2022-12-13T02:40:31.766Z,25.83
2022-12-13T02:43:05.220Z,26.80
2022-12-13T02:45:38.995Z,24.70
2022-12-13T02:48:11.948Z,21.02
2022-12-13T02:50:41.109Z,19.98
2022-12-13T02:53:10.858Z,22.70
2022-12-13T02:55:40.263Z,22.92
2022-12-13T02:58:13.958Z,20.27
2022-12-13T03:00:52.163Z,18.10
2022-12-13T03:03:33.383Z,25.10
2022-12-13T03:06:33.332Z,22.10
2022-12-13T03:09:13.711Z,23.05
2022-12-13T03:12:15.767Z,22.17
2022-12-13T03:14:54.383Z,26.42
2022-12-13T03:17:24.632Z,21.38
2022-12-13T03:19:54.643Z,22.45
2022-12-13T03:22:24.310Z,21.60
2022-12-13T03:24:54.741Z,22.38
2022-12-13T03:27:23.036Z,20.98
2022-12-13T03:29:51.150Z,21.75
2022-12-13T03:32:21.515Z,20.85
2022-12-13T03:34:53.436Z,21.13
2022-12-13T03:37:33.452Z,21.23
2022-12-13T03:40:01.850Z,22.42
2022-12-13T03:42:30.165Z,17.58
2022-12-13T03:45:00.728Z,22.20
2022-12-13T03:47:28.865Z,21.00
2022-12-13T03:49:57.275Z,22.13
2022-12-13T03:52:47.569Z,22.10
2022-12-13T03:55:16.156Z,22.50
2022-12-13T03:57:46.706Z,24.42
2022-12-13T04:00:15.879Z,21.00
2022-12-13T04:02:44.113Z,19.58
2022-12-13T04:05:12.360Z,22.52
2022-12-13T04:07:40.839Z,18.48
2022-12-13T04:10:26.070Z,24.00
2022-12-13T04:13:12.959Z,21.10
2022-12-13T04:15:48.892Z,16.13
2022-12-13T04:18:18.088Z,22.73
2022-12-13T04:20:48.618Z,20.17
2022-12-13T04:23:17.051Z,22.70
2022-12-13T04:25:46.669Z,21.00
2022-12-13T04:28:22.698Z,22.00
2022-12-13T04:30:53.188Z,22.40
2022-12-13T04:33:22.279Z,19.00
2022-12-13T04:35:51.558Z,19.60
2022-12-13T04:38:19.649Z,23.58
2022-12-13T04:40:49.287Z,23.50
2022-12-13T04:43:17.340Z,20.38
2022-12-13T04:45:46.593Z,20.70
2022-12-13T04:48:30.421Z,19.27
2022-12-13T04:51:01.380Z,20.90
2022-12-13T04:53:30.398Z,21.20
2022-12-13T04:56:04.654Z,24.48
2022-12-13T04:58:33.130Z,20.63
2022-12-13T05:01:07.047Z,25.38
2022-12-13T05:03:35.409Z,19.48
2022-12-13T05:06:06.548Z,19.70
2022-12-13T05:08:54.578Z,22.90
2022-12-13T05:11:24.218Z,24.38
2022-12-13T05:13:52.557Z,21.38
2022-12-13T05:16:20.659Z,20.85
2022-12-13T05:18:53.291Z,24.27
2022-12-13T05:21:21.443Z,21.35
2022-12-13T05:23:49.546Z,23.48
2022-12-13T05:26:17.751Z,23.02
2022-12-13T05:28:47.303Z,23.35
2022-12-13T05:31:23.704Z,20.17
2022-12-13T05:33:52.605Z,21.10
2022-12-13T05:36:25.186Z,21.10
2022-12-13T05:38:53.886Z,21.70
2022-12-13T05:41:24.688Z,21.55
2022-12-13T05:43:54.095Z,20.10
2022-12-13T05:46:22.249Z,19.80
2022-12-13T05:48:50.345Z,20.92
2022-12-13T05:51:18.490Z,21.63
2022-12-13T05:53:51.593Z,21.65
2022-12-13T05:56:22.407Z,18.92
2022-12-13T05:58:55.870Z,19.38
2022-12-13T06:01:24.086Z,24.50
2022-12-13T06:03:54.348Z,21.08
2022-12-13T06:06:22.493Z,24.20
2022-12-13T06:08:52.718Z,20.73
2022-12-13T06:11:32.046Z,19.67
2022-12-13T06:14:01.906Z,18.27
2022-12-13T06:16:30.177Z,21.63
2022-12-13T06:19:04.495Z,21.33
2022-12-13T06:21:41.026Z,22.27
2022-12-13T06:24:14.926Z,19.48
2022-12-13T06:26:45.550Z,40.05
2022-12-13T06:29:24.409Z,26.35
2022-12-13T06:34:30.426Z,20.40
2022-12-13T06:36:58.492Z,24.50
2022-12-13T06:39:33.156Z,26.17
2022-12-13T06:42:03.079Z,18.25
2022-12-13T06:44:32.778Z,23.45
2022-12-13T06:47:11.115Z,19.75
2022-12-13T06:49:44.842Z,24.33
2022-12-13T06:52:14.722Z,23.48
2022-12-13T06:54:43.885Z,21.15
2022-12-13T06:57:13.310Z,20.98
2022-12-13T06:59:43.054Z,26.17
2022-12-13T07:02:24.786Z,21.63
2022-12-13T07:04:57.678Z,19.88
2022-12-13T07:07:27.056Z,19.05
2022-12-13T07:09:57.725Z,20.10
2022-12-13T07:12:25.969Z,24.42
2022-12-13T07:14:56.151Z,24.45
2022-12-13T07:17:32.391Z,20.10
2022-12-13T07:20:04.840Z,21.50
2022-12-13T07:22:35.251Z,24.35
2022-12-13T07:25:05.824Z,23.95
2022-12-13T07:27:34.762Z,21.70
2022-12-13T07:30:04.923Z,19.85
2022-12-13T07:32:32.995Z,25.40
2022-12-13T07:35:01.047Z,27.38
2022-12-13T07:37:29.247Z,20.80
2022-12-13T07:40:03.873Z,20.02
2022-12-13T07:42:33.092Z,23.85
2022-12-13T07:45:01.354Z,22.33
2022-12-13T07:47:33.280Z,21.40
2022-12-13T07:50:01.847Z,22.95
2022-12-13T07:52:30.383Z,20.20
2022-12-13T07:54:58.814Z,22.30
2022-12-13T07:57:27.041Z,20.27
2022-12-13T07:59:55.187Z,19.25
2022-12-13T08:02:23.392Z,26.52
2022-12-13T08:04:55.042Z,19.27
2022-12-13T08:07:24.027Z,21.45
2022-12-13T08:09:53.127Z,20.15
2022-12-13T08:12:22.706Z,22.05
2022-12-13T08:14:53.167Z,19.42
2022-12-13T08:17:22.054Z,19.20
2022-12-13T08:19:53.879Z,20.85
2022-12-13T08:22:24.276Z,21.00
2022-12-13T08:24:52.983Z,20.88
2022-12-13T08:27:21.265Z,26.17
2022-12-13T08:29:49.553Z,22.13
2022-12-13T08:32:17.813Z,20.05
2022-12-13T08:34:46.714Z,21.40
2022-12-13T08:37:16.889Z,18.85
2022-12-13T08:39:47.415Z,21.95
2022-12-13T08:42:20.017Z,19.70
2022-12-13T08:44:49.781Z,20.80
2022-12-13T08:47:23.709Z,19.48
2022-12-13T08:49:54.895Z,23.98
2022-12-13T08:52:24.967Z,23.38
2022-12-13T08:54:53.287Z,17.80
2022-12-13T08:57:21.558Z,19.88
2022-12-13T08:59:49.748Z,23.13
2022-12-13T09:02:18.074Z,19.00
2022-12-13T09:04:46.557Z,22.00
2022-12-13T09:07:14.936Z,18.73
2022-12-13T09:09:44.443Z,21.35
2022-12-13T09:12:29.671Z,22.67
2022-12-13T09:15:01.473Z,21.23
2022-12-13T09:17:37.088Z,19.17
2022-12-13T09:20:09.762Z,20.17
2022-12-13T09:23:01.749Z,18.30
2022-12-13T09:25:36.590Z,20.38
2022-12-13T09:28:08.441Z,20.15
2022-12-13T09:30:37.312Z,20.70
2022-12-13T09:33:18.115Z,20.67
2022-12-13T09:35:53.936Z,20.75
2022-12-13T09:38:22.568Z,21.23
2022-12-13T09:40:59.095Z,15.98
2022-12-13T09:43:43.132Z,18.17
2022-12-13T09:46:34.640Z,18.67
2022-12-13T09:49:16.144Z,19.20
2022-12-13T09:52:10.331Z,15.25
2022-12-13T09:54:49.376Z,18.45
2022-12-13T09:57:32.469Z,21.50
2022-12-13T10:00:05.457Z,25.13
2022-12-13T10:02:45.419Z,20.92
2022-12-13T10:05:35.904Z,18.85
2022-12-13T10:08:08.937Z,17.67
2022-12-13T10:10:37.997Z,21.52
2022-12-13T10:13:15.943Z,18.13
2022-12-13T10:15:48.652Z,17.20
2022-12-13T10:18:25.572Z,17.10
2022-12-13T10:20:55.602Z,17.85
2022-12-13T10:23:38.567Z,14.73
2022-12-13T10:26:23.709Z,14.98
2022-12-13T10:29:04.178Z,17.23
2022-12-13T10:31:41.412Z,14.48
2022-12-13T10:34:18.858Z,17.10
2022-12-13T10:36:47.977Z,16.33
2022-12-13T10:39:18.418Z,19.38
2022-12-13T10:41:47.504Z,18.75
2022-12-13T10:44:25.475Z,17.48
2022-12-13T10:47:03.915Z,15.43
2022-12-13T10:49:40.484Z,14.95
2022-12-13T10:52:30.674Z,17.10
2022-12-13T10:55:03.680Z,16.42
2022-12-13T10:57:32.843Z,15.38
2022-12-13T11:00:02.342Z,16.02
2022-12-13T11:02:34.202Z,16.67
2022-12-13T11:05:24.157Z,20.90
2022-12-13T11:07:52.991Z,15.30
2022-12-13T11:10:27.567Z,13.43
2022-12-13T11:13:01.882Z,15.15
2022-12-13T11:15:32.853Z,13.70
2022-12-13T11:18:03.335Z,15.30
2022-12-13T11:20:36.295Z,14.95
2022-12-13T11:23:07.277Z,14.15
2022-12-13T11:25:41.626Z,15.48
2022-12-13T11:28:26.572Z,14.18
2022-12-13T11:31:09.911Z,14.25
2022-12-13T11:33:48.909Z,13.75
2022-12-13T11:36:32.207Z,12.27
2022-12-13T11:39:13.496Z,14.85
2022-12-13T11:41:48.594Z,13.95
2022-12-13T11:44:22.126Z,13.02
2022-12-13T11:46:55.269Z,13.15
2022-12-13T11:49:33.473Z,12.50
2022-12-13T11:52:06.875Z,19.23
2022-12-13T11:54:44.180Z,12.50
2022-12-13T11:59:54.071Z,13.75
2022-12-13T12:02:36.386Z,11.48
2022-12-13T12:05:09.384Z,11.25
2022-12-13T12:08:05.392Z,11.65
2022-12-13T12:10:35.710Z,11.65
2022-12-13T12:13:11.524Z,12.13
2022-12-13T12:15:46.832Z,10.77
2022-12-13T12:18:17.127Z,14.38
2022-12-13T12:20:59.473Z,11.82
2022-12-13T12:23:47.371Z,10.82
2022-12-13T12:26:19.445Z,12.43
2022-12-13T12:29:02.848Z,11.38
2022-12-13T12:31:50.535Z,12.65
2022-12-13T12:34:30.781Z,10.25
2022-12-13T12:37:08.914Z,9.88
2022-12-13T12:39:51.031Z,9.32
2022-12-13T12:42:50.224Z,9.55
2022-12-13T12:45:55.705Z,12.35
2022-12-13T12:48:58.431Z,11.10
2022-12-13T12:51:38.179Z,12.18
2022-12-13T12:54:21.766Z,10.57
2022-12-13T12:56:58.986Z,11.40
2022-12-13T12:59:35.719Z,10.40
2022-12-13T13:02:17.085Z,9.20
2022-12-13T13:04:51.967Z,10.43
2022-12-13T13:07:26.909Z,10.77
2022-12-13T13:09:56.573Z,10.48
2022-12-13T13:12:28.988Z,11.15
2022-12-13T13:14:58.150Z,12.68
2022-12-13T13:17:48.134Z,12.57
2022-12-13T13:20:26.639Z,7.38
2022-12-13T13:23:31.995Z,10.90
2022-12-13T13:26:15.832Z,11.30
2022-12-13T13:28:44.193Z,10.98
2022-12-13T13:31:12.837Z,10.85
2022-12-13T13:33:47.837Z,14.15
2022-12-13T13:36:47.262Z,10.20
2022-12-13T13:39:19.288Z,9.82
2022-12-13T13:42:09.206Z,10.43
2022-12-13T13:45:10.540Z,13.80
2022-12-13T13:47:44.642Z,12.02
2022-12-13T13:50:41.463Z,11.57
2022-12-13T13:53:45.827Z,7.13
2022-12-13T13:56:49.981Z,7.53
2022-12-13T13:59:58.855Z,9.60
2022-12-13T14:03:02.930Z,9.35
2022-12-13T14:06:03.430Z,7.80
2022-12-13T14:08:42.286Z,7.13
2022-12-13T14:11:27.110Z,7.85
2022-12-13T14:14:38.798Z,10.95
2022-12-13T14:17:41.897Z,8.38
2022-12-13T14:20:43.292Z,7.38
2022-12-13T14:23:22.426Z,9.25
2022-12-13T14:26:19.784Z,7.38
2022-12-13T14:28:54.630Z,8.02
2022-12-13T14:31:26.053Z,8.15
2022-12-13T14:33:57.024Z,8.57
2022-12-13T14:36:32.400Z,10.15
2022-12-13T14:39:02.590Z,9.05
2022-12-13T14:41:31.400Z,8.18
2022-12-13T14:44:16.336Z,7.18
2022-12-13T14:46:52.488Z,12.82
2022-12-13T14:49:22.426Z,11.45
2022-12-13T14:52:00.371Z,11.13
2022-12-13T14:54:33.598Z,11.18
2022-12-13T14:57:04.633Z,10.18
2022-12-13T14:59:34.725Z,10.32
2022-12-13T15:02:05.302Z,9.27
2022-12-13T15:04:35.808Z,10.63
2022-12-13T15:07:08.227Z,11.63
2022-12-13T15:09:38.924Z,7.32
2022-12-13T15:12:14.738Z,10.25
2022-12-13T15:15:00.447Z,9.70
2022-12-13T15:17:32.283Z,10.38
2022-12-13T15:20:25.147Z,10.88
2022-12-13T15:23:29.115Z,9.10
2022-12-13T15:26:04.239Z,8.02
2022-12-13T15:28:35.280Z,9.65
2022-12-13T15:31:07.078Z,8.70
2022-12-13T15:33:42.560Z,8.73
2022-12-13T15:36:20.237Z,10.32
2022-12-13T15:39:00.667Z,9.70
2022-12-13T15:41:31.254Z,7.55
2022-12-13T15:44:02.711Z,8.23
2022-12-13T15:46:37.615Z,8.07
2022-12-13T15:49:07.958Z,9.00
2022-12-13T15:51:55.363Z,12.38
2022-12-13T15:54:27.598Z,8.48
2022-12-13T15:57:03.286Z,10.73
2022-12-13T15:59:34.762Z,8.38
2022-12-13T16:02:05.634Z,7.57
2022-12-13T16:04:34.565Z,9.15
2022-12-13T16:07:03.207Z,9.07
2022-12-13T16:09:35.345Z,9.93
2022-12-13T16:12:06.789Z,8.57
2022-12-13T16:14:49.702Z,9.00
2022-12-13T16:17:40.191Z,9.20
2022-12-13T16:20:21.208Z,9.50
2022-12-13T16:22:50.027Z,9.00
2022-12-13T16:25:20.341Z,9.20
2022-12-13T16:27:49.132Z,11.48
2022-12-13T16:30:25.587Z,13.50
2022-12-13T16:33:18.212Z,10.25
2022-12-13T16:35:44.018Z,10.68
2022-12-13T16:38:17.710Z,14.98
2022-12-13T16:40:56.931Z,10.90
2022-12-13T16:43:33.495Z,10.50
2022-12-13T16:47:11.547Z,13.32
2022-12-13T16:48:57.224Z,11.25
2022-12-13T16:51:26.595Z,12.13
2022-12-13T16:53:55.528Z,11.98
2022-12-13T16:56:23.665Z,8.77
2022-12-13T16:58:52.044Z,10.90
2022-12-13T17:01:22.165Z,11.73
2022-12-13T17:03:51.949Z,11.00
2022-12-13T17:06:24.885Z,11.10
2022-12-13T17:08:56.587Z,12.88
2022-12-13T17:11:26.870Z,10.88
2022-12-13T17:13:55.180Z,12.55
2022-12-13T17:16:26.028Z,10.93
2022-12-13T17:18:57.104Z,12.93
2022-12-13T17:21:28.591Z,10.80
2022-12-13T17:24:01.054Z,11.55
2022-12-13T17:26:36.235Z,9.73
2022-12-13T17:29:05.188Z,11.55
2022-12-13T17:31:35.990Z,11.73
2022-12-13T17:34:05.237Z,11.32
2022-12-13T17:36:38.932Z,12.30
2022-12-13T17:39:07.289Z,10.23
2022-12-13T17:41:35.945Z,11.85
2022-12-13T17:44:04.271Z,10.50
2022-12-13T17:46:34.574Z,10.20
2022-12-13T17:49:03.262Z,13.02
2022-12-13T17:51:34.139Z,13.00
2022-12-13T17:54:03.633Z,16.55
2022-12-13T17:56:31.783Z,19.02
2022-12-13T17:59:00.560Z,13.77
2022-12-13T18:01:29.052Z,16.83
2022-12-13T18:03:59.787Z,14.93
2022-12-13T18:06:28.123Z,17.55
2022-12-13T18:08:56.397Z,17.10
2022-12-13T18:11:34.413Z,15.73
2022-12-13T18:14:04.433Z,15.10
2022-12-13T18:16:37.435Z,15.23
2022-12-13T18:19:13.534Z,14.85
2022-12-13T18:21:43.218Z,14.65
2022-12-13T18:24:12.584Z,16.95
2022-12-13T18:26:42.127Z,12.30
2022-12-13T18:29:15.739Z,15.68
2022-12-13T18:31:43.956Z,18.30
2022-12-13T18:34:12.638Z,17.77
2022-12-13T18:36:40.765Z,15.43
2022-12-13T18:39:09.048Z,18.55
2022-12-13T18:41:41.447Z,21.77
2022-12-13T18:44:13.544Z,17.52
2022-12-13T18:46:45.843Z,16.05
2022-12-13T18:49:14.552Z,16.55
2022-12-13T18:51:42.651Z,17.40
2022-12-13T18:54:11.032Z,15.65
2022-12-13T18:56:39.414Z,14.90
2022-12-13T18:59:09.118Z,15.80
2022-12-13T19:01:37.327Z,17.45
2022-12-13T19:04:05.705Z,18.88
2022-12-13T19:06:33.915Z,15.95
2022-12-13T19:09:02.349Z,16.50
2022-12-13T19:11:30.685Z,13.35
2022-12-13T19:14:00.658Z,15.13
2022-12-13T19:16:30.266Z,19.40
2022-12-13T19:18:59.439Z,19.27
2022-12-13T19:21:27.788Z,17.77
2022-12-13T19:23:58.632Z,16.58
2022-12-13T19:26:28.096Z,15.88
2022-12-13T19:28:57.263Z,19.98
2022-12-13T19:31:31.063Z,14.52
2022-12-13T19:34:02.401Z,16.83
2022-12-13T19:36:31.161Z,18.23
2022-12-13T19:38:59.416Z,12.13
2022-12-13T19:41:32.195Z,14.85
2022-12-13T19:44:03.619Z,14.38
2022-12-13T19:46:32.243Z,15.07
2022-12-13T19:49:04.431Z,11.98
2022-12-13T19:51:38.992Z,12.48
2022-12-13T19:54:08.333Z,11.13
2022-12-13T19:56:36.419Z,14.98
2022-12-13T19:59:05.362Z,11.60
2022-12-13T20:01:37.045Z,15.50
2022-12-13T20:04:06.909Z,17.70
2022-12-13T20:06:34.985Z,14.15
2022-12-13T20:09:03.187Z,12.02
2022-12-13T20:11:32.023Z,13.90
2022-12-13T20:14:00.927Z,13.15
2022-12-13T20:16:29.387Z,14.57
2022-12-13T20:18:58.722Z,15.55
2022-12-13T20:21:28.957Z,15.30
2022-12-13T20:23:58.029Z,16.00
2022-12-13T20:26:27.669Z,13.95
2022-12-13T20:28:57.361Z,17.95
2022-12-13T20:31:28.445Z,13.80
2022-12-13T20:33:57.631Z,16.13
2022-12-13T20:36:29.008Z,11.70
2022-12-13T20:38:59.570Z,12.27
2022-12-13T20:41:30.287Z,11.18
2022-12-13T20:44:03.323Z,12.80
2022-12-13T20:46:32.028Z,14.35
2022-12-13T20:49:04.645Z,13.00
2022-12-13T20:51:35.179Z,17.42
2022-12-13T20:54:04.815Z,11.88
2022-12-13T20:56:37.281Z,12.38
2022-12-13T20:59:18.123Z,14.05
2022-12-13T21:01:48.772Z,14.13
2022-12-13T21:04:17.548Z,13.65
2022-12-13T21:06:47.165Z,14.70
2022-12-13T21:09:15.240Z,12.27
2022-12-13T21:11:45.136Z,15.23
2022-12-13T21:14:21.452Z,13.77
2022-12-13T21:16:52.492Z,12.73
2022-12-13T21:19:22.717Z,11.05
2022-12-13T21:21:53.376Z,11.85
2022-12-13T21:24:24.017Z,9.85
2022-12-13T21:26:52.171Z,10.15
2022-12-13T21:29:20.647Z,10.00
2022-12-13T21:31:50.963Z,11.18
2022-12-13T21:34:21.560Z,12.75
2022-12-13T21:36:53.016Z,9.43
2022-12-13T21:39:24.078Z,10.63
2022-12-13T21:41:53.797Z,11.20
2022-12-13T21:44:22.254Z,11.57
2022-12-13T21:49:39.188Z,10.32
2022-12-13T21:52:08.688Z,12.70
2022-12-13T21:54:36.879Z,11.60
2022-12-13T21:57:37.109Z,11.07
2022-12-13T22:00:08.962Z,10.00
2022-12-13T22:02:41.193Z,13.88
2022-12-13T22:05:11.296Z,12.25
2022-12-13T22:07:40.920Z,11.88
2022-12-13T22:10:09.844Z,12.40
2022-12-13T22:12:39.664Z,11.95
2022-12-13T22:15:10.796Z,12.90
2022-12-13T22:17:42.750Z,12.68
2022-12-13T22:20:13.775Z,11.38
2022-12-13T22:22:45.324Z,13.63
2022-12-13T22:25:16.693Z,14.05
2022-12-13T22:27:45.678Z,13.32
2022-12-13T22:30:14.196Z,12.52
2022-12-13T22:32:42.349Z,13.75
2022-12-13T22:35:11.825Z,13.30
2022-12-13T22:37:40.479Z,13.00
2022-12-13T22:40:11.635Z,11.10
2022-12-13T22:42:39.703Z,12.10
2022-12-13T22:45:08.570Z,12.40
2022-12-13T22:47:36.639Z,13.13
2022-12-13T22:50:05.102Z,11.88
2022-12-13T22:52:34.089Z,10.57
2022-12-13T22:55:03.089Z,12.63
2022-12-13T22:57:32.706Z,15.60
2022-12-13T23:00:00.784Z,12.57
2022-12-13T23:02:28.928Z,13.13
2022-12-13T23:04:57.424Z,10.43
2022-12-13T23:07:25.499Z,11.55
2022-12-13T23:09:53.569Z,12.00
2022-12-13T23:12:39.350Z,13.48
2022-12-13T23:15:10.944Z,12.25
2022-12-13T23:17:39.286Z,12.80
2022-12-13T23:20:09.055Z,14.23
2022-12-13T23:22:37.303Z,13.43
2022-12-13T23:25:08.549Z,11.45
2022-12-13T23:27:36.811Z,12.10
2022-12-13T23:30:06.400Z,12.10
2022-12-13T23:32:35.817Z,14.68
2022-12-13T23:35:04.177Z,11.93
2022-12-13T23:37:32.374Z,11.18
2022-12-13T23:40:03.010Z,13.52
2022-12-13T23:42:31.164Z,13.50
2022-12-13T23:44:59.277Z,12.77
2022-12-13T23:47:27.420Z,13.25
2022-12-13T23:49:57.039Z,13.88
2022-12-13T23:52:25.214Z,14.13
2022-12-13T23:54:53.261Z,14.20
2022-12-13T23:57:22.029Z,14.27
2022-12-13T23:59:50.154Z,17.35
